Time;durP1;ratioP1;P1;durP2;ratioP2;P2;SDS_P1;SDS_P2;PMS_P1;PMS_P2;Temp;Humidity;BMP_temperature;BMP_pressure;BME280_temperature;BME280_humidity;BME280_pressure;Samples;Min_cycle;Max_cycle;Signal;HPM_P1;HPM_P2
2022/08/15 00:01:50;;;;;;;7.78;4.50;;;;;;;;;;5072763;28;20079;-63
2022/08/15 00:04:16;;;;;;;7.43;4.05;;;;;;;;;;5049890;28;20059;-53
2022/08/15 00:06:45;;;;;;;7.93;4.78;;;;;;;;;;5063671;28;20040;-56
2022/08/15 00:09:18;;;;;;;12.35;4.53;;;;;;;;;;5047540;28;20055;-64
2022/08/15 00:11:45;;;;;;;9.35;4.57;;;;;;;;;;5056343;28;20060;-55
2022/08/15 00:14:16;;;;;;;8.32;4.20;;;;;;;;;;5060894;28;20043;-56
2022/08/15 00:16:44;;;;;;;5.78;4.60;;;;;;;;;;5063741;28;20090;-54
2022/08/15 00:19:12;;;;;;;6.60;4.88;;;;;;;;;;5055627;28;20123;-56
2022/08/15 00:21:43;;;;;;;6.70;4.53;;;;;;;;;;5051365;28;20044;-58
2022/08/15 00:24:10;;;;;;;6.53;4.22;;;;;;;;;;5056400;28;20052;-56
2022/08/15 00:26:37;;;;;;;4.88;4.05;;;;;;;;;;5065145;28;20056;-54
2022/08/15 00:29:03;;;;;;;4.57;4.13;;;;;;;;;;5066615;28;20076;-58
2022/08/15 00:31:33;;;;;;;6.75;4.40;;;;;;;;;;5064854;28;20047;-62
2022/08/15 00:33:59;;;;;;;6.55;4.22;;;;;;;;;;5037953;28;20045;-51
2022/08/15 00:36:26;;;;;;;8.15;4.57;;;;;;;;;;5064367;28;20101;-58
2022/08/15 00:38:52;;;;;;;5.68;4.90;;;;;;;;;;5050080;28;20396;-57
2022/08/15 00:44:06;;;;;;;6.03;4.78;;;;;;;;;;5066819;28;20041;-54
2022/08/15 00:46:32;;;;;;;5.53;4.07;;;;;;;;;;5048098;28;20052;-60
2022/08/15 00:48:58;;;;;;;6.63;4.28;;;;;;;;;;5066520;28;20498;-55
2022/08/15 00:51:30;;;;;;;10.23;4.05;;;;;;;;;;5065639;28;20098;-51
2022/08/15 00:54:04;;;;;;;6.20;4.38;;;;;;;;;;5031903;28;20044;-58
2022/08/15 00:56:32;;;;;;;6.30;4.22;;;;;;;;;;5065497;28;20044;-57
2022/08/15 00:58:58;;;;;;;4.28;3.85;;;;;;;;;;5064905;28;20045;-56
2022/08/15 01:01:24;;;;;;;9.65;5.05;;;;;;;;;;5060724;28;20084;-55
2022/08/15 01:03:50;;;;;;;7.95;4.35;;;;;;;;;;5031048;28;20048;-56
2022/08/15 01:06:19;;;;;;;6.15;4.20;;;;;;;;;;5066230;28;20465;-54
2022/08/15 01:08:46;;;;;;;10.45;5.15;;;;;;;;;;5066081;28;20110;-64
2022/08/15 01:11:15;;;;;;;7.75;4.88;;;;;;;;;;5063285;28;20395;-59
2022/08/15 01:13:42;;;;;;;6.60;4.18;;;;;;;;;;5047858;28;20052;-65
2022/08/15 01:16:08;;;;;;;4.68;4.22;;;;;;;;;;5047569;28;20044;-66
2022/08/15 01:18:35;;;;;;;4.65;4.22;;;;;;;;;;5066253;28;20036;-55
2022/08/15 01:21:05;;;;;;;8.18;4.40;;;;;;;;;;5065897;28;20037;-53
2022/08/15 01:23:42;;;;;;;5.45;4.85;;;;;;;;;;5065280;28;20090;-54
2022/08/15 01:26:09;;;;;;;7.97;4.28;;;;;;;;;;5047249;28;20061;-58
2022/08/15 01:28:39;;;;;;;5.22;4.10;;;;;;;;;;5066168;28;20036;-59
2022/08/15 01:31:16;;;;;;;5.85;3.75;;;;;;;;;;5065606;28;20048;-60
2022/08/15 01:33:56;;;;;;;7.43;4.47;;;;;;;;;;5064937;28;20080;-58
2022/08/15 01:36:23;;;;;;;8.45;4.10;;;;;;;;;;5062601;28;20422;-54
2022/08/15 01:38:54;;;;;;;6.93;3.83;;;;;;;;;;5056547;28;20069;-63
2022/08/15 01:41:20;;;;;;;13.85;4.05;;;;;;;;;;5060179;28;20102;-55
2022/08/15 01:43:58;;;;;;;4.05;3.65;;;;;;;;;;5064883;28;20048;-59
2022/08/15 01:46:26;;;;;;;5.68;4.25;;;;;;;;;;5064770;28;20119;-58
2022/08/15 01:48:54;;;;;;;13.98;4.28;;;;;;;;;;5043016;28;20044;-55
2022/08/15 01:51:20;;;;;;;7.70;4.15;;;;;;;;;;5046727;28;20652;-58
2022/08/15 01:53:54;;;;;;;4.68;4.25;;;;;;;;;;5050668;28;20072;-54
2022/08/15 01:56:29;;;;;;;8.40;5.03;;;;;;;;;;5069260;28;20041;-54
2022/08/15 01:58:57;;;;;;;5.68;3.97;;;;;;;;;;5062697;28;20079;-55
2022/08/15 02:01:44;;;;;;;4.40;3.80;;;;;;;;;;5051030;28;20036;-61
2022/08/15 02:04:12;;;;;;;9.23;4.47;;;;;;;;;;5056777;28;20055;-54
2022/08/15 02:06:39;;;;;;;6.65;4.70;;;;;;;;;;5068990;28;20514;-56
2022/08/15 02:09:06;;;;;;;6.03;4.13;;;;;;;;;;5068257;28;20120;-57
2022/08/15 02:11:32;;;;;;;6.68;4.10;;;;;;;;;;5051196;28;20112;-59
2022/08/15 02:13:59;;;;;;;5.78;4.38;;;;;;;;;;5068696;28;20132;-52
2022/08/15 02:16:27;;;;;;;16.50;4.90;;;;;;;;;;5068343;28;20864;-52
2022/08/15 02:18:53;;;;;;;10.70;4.72;;;;;;;;;;5047201;28;20087;-63
2022/08/15 02:21:20;;;;;;;5.20;4.43;;;;;;;;;;5053105;28;20483;-54
2022/08/15 02:23:46;;;;;;;6.38;4.97;;;;;;;;;;5065632;28;20132;-61
2022/08/15 02:26:12;;;;;;;6.47;4.50;;;;;;;;;;5065905;28;20037;-54
2022/08/15 02:28:42;;;;;;;6.35;4.20;;;;;;;;;;5060601;28;20045;-60
2022/08/15 02:31:15;;;;;;;8.10;4.45;;;;;;;;;;5050499;28;20041;-52
2022/08/15 02:33:42;;;;;;;10.63;4.57;;;;;;;;;;5062070;28;20053;-60
2022/08/15 02:36:08;;;;;;;8.32;4.60;;;;;;;;;;5063245;28;20461;-54
2022/08/15 02:38:35;;;;;;;6.68;4.80;;;;;;;;;;5059754;28;20041;-47
2022/08/15 02:41:01;;;;;;;6.75;4.70;;;;;;;;;;5062559;28;20048;-53
2022/08/15 02:43:27;;;;;;;9.30;4.47;;;;;;;;;;5067723;28;20060;-58
2022/08/15 02:45:54;;;;;;;5.28;4.40;;;;;;;;;;5069173;28;20453;-51
2022/08/15 02:48:20;;;;;;;5.32;4.93;;;;;;;;;;5054344;28;20082;-56
2022/08/15 02:50:46;;;;;;;6.57;5.00;;;;;;;;;;5050883;28;20055;-58
2022/08/15 02:53:14;;;;;;;5.60;4.38;;;;;;;;;;5068328;28;20815;-59
2022/08/15 02:55:42;;;;;;;5.97;4.80;;;;;;;;;;5067888;28;20059;-60
2022/08/15 02:58:09;;;;;;;7.97;5.40;;;;;;;;;;5068417;28;20041;-59
2022/08/15 03:00:36;;;;;;;6.88;5.45;;;;;;;;;;5067899;28;20033;-60
2022/08/15 03:03:07;;;;;;;6.97;5.50;;;;;;;;;;5067125;28;20040;-59
2022/08/15 03:05:34;;;;;;;5.40;4.95;;;;;;;;;;5064046;28;20037;-64
2022/08/15 03:08:01;;;;;;;6.43;5.32;;;;;;;;;;5068029;28;20090;-54
2022/08/15 03:10:27;;;;;;;8.32;5.55;;;;;;;;;;5064014;28;20060;-54
2022/08/15 03:12:55;;;;;;;6.88;5.93;;;;;;;;;;5054126;28;20040;-53
2022/08/15 03:15:24;;;;;;;6.22;5.53;;;;;;;;;;5057039;28;20430;-50
2022/08/15 03:17:50;;;;;;;6.20;5.60;;;;;;;;;;5048029;28;20123;-60
2022/08/15 03:20:18;;;;;;;10.13;5.35;;;;;;;;;;5068260;28;20041;-58
2022/08/15 03:22:48;;;;;;;8.35;5.60;;;;;;;;;;5053259;28;20131;-58
2022/08/15 03:25:16;;;;;;;7.35;5.55;;;;;;;;;;5032902;28;20044;-60
2022/08/15 03:27:42;;;;;;;7.50;5.65;;;;;;;;;;5067341;28;20513;-58
2022/08/15 03:30:10;;;;;;;6.70;5.57;;;;;;;;;;5067935;28;20387;-53
2022/08/15 03:32:47;;;;;;;9.80;5.57;;;;;;;;;;5067230;28;20177;-58
2022/08/15 03:35:13;;;;;;;8.95;6.22;;;;;;;;;;5055626;28;20040;-56
2022/08/15 03:37:40;;;;;;;9.48;5.97;;;;;;;;;;5067558;28;20483;-60
2022/08/15 03:40:06;;;;;;;9.15;6.97;;;;;;;;;;5067437;28;20483;-59
2022/08/15 03:42:33;;;;;;;16.75;6.05;;;;;;;;;;5032987;28;20048;-59
2022/08/15 03:45:02;;;;;;;9.07;5.85;;;;;;;;;;5066807;28;20384;-51
2022/08/15 03:47:29;;;;;;;6.18;5.55;;;;;;;;;;5049254;28;20114;-53
2022/08/15 03:49:55;;;;;;;6.47;5.85;;;;;;;;;;5067306;28;20577;-55
2022/08/15 03:52:21;;;;;;;5.95;5.43;;;;;;;;;;5067151;28;20078;-52
2022/08/15 03:54:47;;;;;;;8.15;5.22;;;;;;;;;;5067337;28;20395;-61
2022/08/15 03:57:13;;;;;;;6.05;5.43;;;;;;;;;;5066751;28;20080;-54
2022/08/15 03:59:39;;;;;;;11.05;5.80;;;;;;;;;;5049065;28;20048;-54
2022/08/15 04:02:09;;;;;;;8.68;5.85;;;;;;;;;;5066886;28;20124;-60
2022/08/15 04:04:35;;;;;;;9.32;5.60;;;;;;;;;;5066746;28;20355;-56
2022/08/15 04:07:04;;;;;;;6.47;5.45;;;;;;;;;;5066608;28;20036;-51
2022/08/15 04:09:30;;;;;;;7.00;6.30;;;;;;;;;;5066638;28;20076;-64
2022/08/15 04:11:58;;;;;;;7.78;6.00;;;;;;;;;;5049656;28;20044;-53
2022/08/15 04:14:25;;;;;;;6.32;5.65;;;;;;;;;;5066539;28;20390;-61
2022/08/15 04:16:51;;;;;;;10.27;5.57;;;;;;;;;;5066069;28;20451;-62
2022/08/15 04:19:19;;;;;;;10.55;5.68;;;;;;;;;;5067062;28;20048;-54
2022/08/15 04:21:45;;;;;;;7.28;5.50;;;;;;;;;;5065865;28;20040;-54
2022/08/15 04:24:12;;;;;;;11.25;5.90;;;;;;;;;;5067163;28;20110;-57
2022/08/15 04:26:38;;;;;;;6.88;5.75;;;;;;;;;;5059361;28;20096;-66
2022/08/15 04:29:04;;;;;;;8.20;5.65;;;;;;;;;;5066404;28;20044;-55
2022/08/15 04:31:30;;;;;;;8.07;5.80;;;;;;;;;;5060749;28;20408;-62
2022/08/15 04:33:56;;;;;;;11.32;5.68;;;;;;;;;;5058267;28;20132;-59
2022/08/15 04:36:22;;;;;;;6.55;5.57;;;;;;;;;;5066392;28;20064;-56
2022/08/15 04:38:51;;;;;;;8.32;6.22;;;;;;;;;;5027993;28;20578;-54
2022/08/15 04:41:17;;;;;;;9.93;5.90;;;;;;;;;;5061761;28;20052;-56
2022/08/15 04:43:44;;;;;;;9.55;5.55;;;;;;;;;;5066556;28;20379;-59
2022/08/15 04:46:11;;;;;;;11.07;6.15;;;;;;;;;;5048599;28;20060;-60
2022/08/15 04:48:37;;;;;;;7.90;6.30;;;;;;;;;;5064580;28;20032;-53
2022/08/15 04:51:04;;;;;;;6.00;5.40;;;;;;;;;;5066309;28;20092;-56
2022/08/15 04:53:33;;;;;;;6.85;6.20;;;;;;;;;;5064695;28;20449;-65
2022/08/15 04:56:00;;;;;;;8.02;6.20;;;;;;;;;;5048527;28;20055;-51
2022/08/15 04:58:27;;;;;;;8.20;5.70;;;;;;;;;;5066019;28;20437;-56
2022/08/15 05:01:13;;;;;;;7.50;5.85;;;;;;;;;;5047487;28;20047;-52
2022/08/15 05:03:39;;;;;;;19.85;6.72;;;;;;;;;;5064404;28;20503;-51
2022/08/15 05:06:07;;;;;;;5.43;4.93;;;;;;;;;;5048207;28;20083;-59
2022/08/15 05:08:34;;;;;;;5.78;5.15;;;;;;;;;;5065357;28;20131;-60
2022/08/15 05:11:11;;;;;;;7.35;6.18;;;;;;;;;;5064016;28;20098;-53
2022/08/15 05:13:38;;;;;;;11.23;6.03;;;;;;;;;;5065846;28;20064;-59
2022/08/15 05:16:07;;;;;;;6.22;5.05;;;;;;;;;;5066038;28;20036;-53
2022/08/15 05:18:33;;;;;;;;;;;;;;;;;;5065990;28;20406;-63
2022/08/15 05:20:59;;;;;;;7.32;5.80;;;;;;;;;;5064144;28;19982;-55
2022/08/15 05:23:26;;;;;;;5.85;5.35;;;;;;;;;;5054093;28;20040;-51
2022/08/15 05:25:54;;;;;;;6.15;5.30;;;;;;;;;;5029797;28;20065;-59
2022/08/15 05:28:21;;;;;;;6.32;5.35;;;;;;;;;;5027776;28;20472;-56
2022/08/15 05:30:47;;;;;;;7.13;5.18;;;;;;;;;;5029724;28;20526;-58
2022/08/15 05:33:15;;;;;;;11.07;5.95;;;;;;;;;;5030030;28;20048;-54
2022/08/15 05:35:42;;;;;;;7.80;5.85;;;;;;;;;;5022766;28;20106;-57
2022/08/15 05:38:11;;;;;;;6.80;6.03;;;;;;;;;;5030302;28;20037;-55
2022/08/15 05:40:58;;;;;;;8.02;6.07;;;;;;;;;;5027495;28;20049;-63
2022/08/15 05:43:43;;;;;;;9.43;5.75;;;;;;;;;;4998443;28;20069;-54
2022/08/15 05:46:16;;;;;;;10.65;6.30;;;;;;;;;;5028824;28;20052;-62
2022/08/15 05:48:42;;;;;;;7.53;6.13;;;;;;;;;;5028006;28;20507;-59
2022/08/15 05:51:15;;;;;;;8.20;5.90;;;;;;;;;;5030641;28;20132;-59
2022/08/15 05:53:47;;;;;;;5.90;5.28;;;;;;;;;;5028901;28;20408;-51
2022/08/15 05:56:18;;;;;;;11.50;6.20;;;;;;;;;;5029025;28;20049;-55
2022/08/15 05:58:50;;;;;;;8.60;6.38;;;;;;;;;;5027850;28;20056;-56
2022/08/15 06:01:18;;;;;;;14.43;6.22;;;;;;;;;;5027745;28;20041;-57
2022/08/15 06:03:47;;;;;;;13.88;6.18;;;;;;;;;;5029093;28;20491;-58
2022/08/15 06:06:15;;;;;;;8.63;6.00;;;;;;;;;;5019892;28;20048;-58
2022/08/15 06:08:47;;;;;;;12.10;5.60;;;;;;;;;;5029312;28;20041;-51
2022/08/15 06:11:16;;;;;;;7.07;6.07;;;;;;;;;;5028877;28;20053;-57
2022/08/15 06:13:44;;;;;;;7.00;5.70;;;;;;;;;;5026766;28;20053;-56
2022/08/15 06:16:18;;;;;;;11.57;6.68;;;;;;;;;;5025355;28;20045;-57
2022/08/15 06:18:45;;;;;;;10.68;6.22;;;;;;;;;;5028619;28;20077;-52
2022/08/15 06:21:16;;;;;;;7.38;5.93;;;;;;;;;;5025757;28;20136;-57
2022/08/15 06:23:57;;;;;;;11.55;5.90;;;;;;;;;;5028553;28;20077;-54
2022/08/15 06:26:36;;;;;;;7.75;6.05;;;;;;;;;;5023785;28;20530;-54
2022/08/15 06:29:02;;;;;;;;;;;;;;;;;;5034070;28;20413;-63
2022/08/15 06:31:39;;;;;;;7.60;5.82;;;;;;;;;;5026743;28;19967;-57
2022/08/15 06:34:24;;;;;;;11.68;6.07;;;;;;;;;;5027351;28;20125;-53
2022/08/15 06:36:59;;;;;;;8.65;5.65;;;;;;;;;;5029176;28;20092;-61
2022/08/15 06:40:02;;;;;;;9.05;5.88;;;;;;;;;;5029577;28;20045;-63
2022/08/15 06:42:35;;;;;;;10.40;5.93;;;;;;;;;;4986785;28;20050;-59
2022/08/15 06:45:05;;;;;;;14.20;5.50;;;;;;;;;;5022689;28;20273;-55
2022/08/15 06:47:32;;;;;;;8.15;6.38;;;;;;;;;;5027995;28;20045;-53
2022/08/15 06:50:02;;;;;;;9.80;6.13;;;;;;;;;;5030794;28;20087;-66
2022/08/15 06:52:29;;;;;;;7.40;5.18;;;;;;;;;;5030633;28;20033;-51
2022/08/15 06:54:55;;;;;;;12.90;6.00;;;;;;;;;;5029338;28;20050;-61
2022/08/15 06:57:21;;;;;;;15.30;6.25;;;;;;;;;;5015265;28;20041;-54
2022/08/15 06:59:56;;;;;;;9.57;6.28;;;;;;;;;;5029205;28;20686;-57
2022/08/15 07:02:43;;;;;;;11.48;5.88;;;;;;;;;;5028666;28;20056;-59
2022/08/15 07:05:30;;;;;;;8.32;5.63;;;;;;;;;;5016886;28;20046;-54
2022/08/15 07:08:15;;;;;;;6.57;5.40;;;;;;;;;;5029363;28;20046;-50
2022/08/15 07:10:50;;;;;;;7.38;5.68;;;;;;;;;;5028023;28;20045;-55
2022/08/15 07:13:23;;;;;;;5.88;5.28;;;;;;;;;;5028388;28;20037;-57
2022/08/15 07:16:09;;;;;;;10.43;5.63;;;;;;;;;;5027389;28;20046;-55
2022/08/15 07:18:39;;;;;;;5.80;5.00;;;;;;;;;;5010587;28;20084;-60
2022/08/15 07:21:11;;;;;;;7.07;5.50;;;;;;;;;;5027234;28;20150;-61
2022/08/15 07:23:57;;;;;;;8.02;5.38;;;;;;;;;;5010267;28;20049;-58
2022/08/15 07:26:25;;;;;;;7.43;5.40;;;;;;;;;;5048049;28;20557;-54
2022/08/15 07:28:51;;;;;;;10.52;5.22;;;;;;;;;;5049649;28;20054;-54
2022/08/15 07:31:20;;;;;;;7.13;5.07;;;;;;;;;;5067833;28;20459;-61
2022/08/15 07:33:48;;;;;;;5.85;5.13;;;;;;;;;;5067359;28;20514;-67
2022/08/15 07:36:14;;;;;;;8.60;5.05;;;;;;;;;;5033040;28;20092;-62
2022/08/15 07:38:44;;;;;;;6.88;4.70;;;;;;;;;;5049997;28;20049;-54
2022/08/15 07:41:13;;;;;;;8.00;4.97;;;;;;;;;;5048484;28;20045;-59
2022/08/15 07:43:39;;;;;;;;;;;;;;;;;;5061130;28;20049;-59
2022/08/15 07:46:08;;;;;;;6.78;4.70;;;;;;;;;;5059929;28;19965;-55
2022/08/15 07:48:34;;;;;;;6.70;4.90;;;;;;;;;;5067756;28;20040;-51
2022/08/15 07:51:03;;;;;;;5.28;4.80;;;;;;;;;;5048523;28;20044;-57
2022/08/15 07:53:30;;;;;;;10.80;4.68;;;;;;;;;;5032937;28;20052;-62
2022/08/15 07:56:14;;;;;;;6.13;4.72;;;;;;;;;;5049404;28;20090;-54
2022/08/15 07:58:41;;;;;;;7.13;4.63;;;;;;;;;;5066783;28;20885;-51
2022/08/15 08:01:10;;;;;;;5.22;4.75;;;;;;;;;;5066680;28;20053;-58
2022/08/15 08:03:37;;;;;;;4.72;4.30;;;;;;;;;;5066456;28;20119;-53
2022/08/15 08:06:04;;;;;;;6.68;4.70;;;;;;;;;;5067207;28;20090;-59
2022/08/15 08:08:54;;;;;;;4.40;4.05;;;;;;;;;;5066974;28;20106;-57
2022/08/15 08:11:36;;;;;;;4.10;3.80;;;;;;;;;;5022951;28;20569;-59
2022/08/15 08:14:23;;;;;;;11.52;4.30;;;;;;;;;;5062189;28;20059;-63
2022/08/15 08:16:57;;;;;;;4.18;3.85;;;;;;;;;;5048702;28;20071;-57
2022/08/15 08:19:29;;;;;;;9.13;3.65;;;;;;;;;;5065553;28;20052;-62
2022/08/15 08:22:19;;;;;;;5.47;3.83;;;;;;;;;;5047738;28;20485;-57
2022/08/15 08:24:45;;;;;;;;;;;;;;;;;;4984880;28;20088;-56
2022/08/15 08:27:20;;;;;;;5.03;3.03;;;;;;;;;;5056414;28;19931;-55
2022/08/15 08:29:50;;;;;;;9.50;2.85;;;;;;;;;;5063523;28;20052;-51
2022/08/15 08:32:26;;;;;;;4.35;3.05;;;;;;;;;;5043738;28;20052;-52
2022/08/15 08:34:59;;;;;;;4.18;3.15;;;;;;;;;;5062769;28;20134;-64
2022/08/15 08:37:34;;;;;;;4.75;3.05;;;;;;;;;;5056433;28;20083;-55
2022/08/15 08:43:09;;;;;;;6.63;2.78;;;;;;;;;;5045823;28;20403;-55
2022/08/15 08:45:42;;;;;;;4.13;3.30;;;;;;;;;;5065635;28;20530;-62
2022/08/15 08:48:24;;;;;;;3.22;2.90;;;;;;;;;;5065736;28;20072;-50
2022/08/15 08:50:53;;;;;;;5.68;3.25;;;;;;;;;;5066079;28;20384;-57
2022/08/15 08:53:38;;;;;;;4.20;3.00;;;;;;;;;;5064436;28;20513;-60
2022/08/15 08:56:04;;;;;;;5.00;3.30;;;;;;;;;;5044913;28;20119;-55
2022/08/15 08:58:36;;;;;;;5.57;4.30;;;;;;;;;;5065578;28;20326;-55
2022/08/15 09:01:03;;;;;;;7.03;3.42;;;;;;;;;;5061330;28;20055;-64
2022/08/15 09:03:34;;;;;;;9.68;3.83;;;;;;;;;;5045126;28;20045;-61
2022/08/15 09:06:01;;;;;;;9.25;3.58;;;;;;;;;;5053391;28;20045;-51
2022/08/15 09:08:32;;;;;;;3.85;3.30;;;;;;;;;;5047176;28;20406;-63
2022/08/15 09:11:07;;;;;;;6.57;2.90;;;;;;;;;;5065063;28;20047;-63
2022/08/15 09:13:35;;;;;;;6.93;3.35;;;;;;;;;;5047095;28;20052;-63
2022/08/15 09:16:12;;;;;;;3.28;2.75;;;;;;;;;;5064387;28;20036;-50
2022/08/15 09:19:01;;;;;;;4.80;2.92;;;;;;;;;;5031073;28;20128;-59
2022/08/15 09:21:28;;;;;;;3.53;2.75;;;;;;;;;;5046688;28;20067;-52
2022/08/15 09:23:54;;;;;;;5.82;2.95;;;;;;;;;;5047683;28;20048;-59
2022/08/15 09:26:33;;;;;;;3.88;2.63;;;;;;;;;;5029938;28;20140;-59
2022/08/15 09:29:18;;;;;;;3.00;2.70;;;;;;;;;;5041581;28;20408;-58
2022/08/15 09:31:48;;;;;;;3.08;2.75;;;;;;;;;;5039574;28;20571;-55
2022/08/15 09:34:40;;;;;;;2.70;2.50;;;;;;;;;;5045339;28;21009;-55
2022/08/15 09:37:25;;;;;;;3.00;2.70;;;;;;;;;;5034953;28;20171;-63
2022/08/15 09:39:51;;;;;;;4.32;2.58;;;;;;;;;;5050367;28;20041;-60
2022/08/15 09:42:29;;;;;;;2.30;2.10;;;;;;;;;;5045252;28;20475;-58
2022/08/15 09:45:15;;;;;;;2.78;2.58;;;;;;;;;;5045892;28;20045;-60
2022/08/15 09:48:00;;;;;;;2.40;2.20;;;;;;;;;;5046498;28;20048;-57
2022/08/15 09:50:35;;;;;;;3.53;1.92;;;;;;;;;;5048406;28;20099;-66
2022/08/15 09:53:07;;;;;;;2.90;2.03;;;;;;;;;;5053046;28;20098;-60
2022/08/15 09:55:46;;;;;;;2.20;2.10;;;;;;;;;;5059386;28;20426;-60
2022/08/15 09:58:31;;;;;;;2.72;1.88;;;;;;;;;;5041732;28;20048;-62
2022/08/15 10:01:14;;;;;;;8.02;2.10;;;;;;;;;;5046438;28;20085;-64
2022/08/15 10:03:43;;;;;;;2.72;1.92;;;;;;;;;;5064249;28;20437;-57
2022/08/15 10:06:29;;;;;;;2.65;1.80;;;;;;;;;;5037786;28;20136;-55
2022/08/15 10:08:56;;;;;;;4.70;2.03;;;;;;;;;;5039548;28;20049;-55
2022/08/15 10:11:37;;;;;;;2.35;1.60;;;;;;;;;;5065118;28;20058;-66
2022/08/15 10:14:08;;;;;;;4.03;2.15;;;;;;;;;;5044694;28;20063;-58
2022/08/15 10:16:36;;;;;;;3.47;2.05;;;;;;;;;;5063803;28;20037;-62
2022/08/15 10:19:02;;;;;;;;;;;;;;;;;;5045100;28;20411;-62
2022/08/15 10:21:33;;;;;;;2.00;1.90;;;;;;;;;;5061646;28;19920;-55
2022/08/15 10:23:59;;;;;;;2.20;2.10;;;;;;;;;;5062020;28;20053;-62
2022/08/15 10:26:27;;;;;;;2.10;2.00;;;;;;;;;;5048309;28;20041;-54
2022/08/15 10:29:02;;;;;;;2.97;2.30;;;;;;;;;;5049163;28;20141;-60
2022/08/15 10:31:31;;;;;;;1.98;1.88;;;;;;;;;;5049823;28;20040;-57
2022/08/15 10:34:02;;;;;;;5.38;2.30;;;;;;;;;;5047366;28;20036;-57
2022/08/15 10:36:35;;;;;;;2.08;1.85;;;;;;;;;;5041256;28;20053;-62
2022/08/15 10:39:17;;;;;;;4.00;2.33;;;;;;;;;;5062463;28;20417;-57
2022/08/15 10:41:52;;;;;;;1.80;1.70;;;;;;;;;;5046124;28;20441;-62
2022/08/15 10:44:41;;;;;;;3.28;1.58;;;;;;;;;;5063176;28;20052;-59
2022/08/15 10:47:16;;;;;;;2.42;2.22;;;;;;;;;;5047271;28;20495;-67
2022/08/15 10:49:58;;;;;;;9.20;1.95;;;;;;;;;;5046516;28;20518;-63
2022/08/15 10:52:25;;;;;;;4.05;2.05;;;;;;;;;;5049580;28;20072;-58
2022/08/15 10:54:51;;;;;;;2.60;2.10;;;;;;;;;;5062172;28;20048;-56
2022/08/15 10:57:19;;;;;;;4.05;2.15;;;;;;;;;;5049906;28;20102;-61
2022/08/15 10:59:49;;;;;;;2.83;2.28;;;;;;;;;;5055312;28;20373;-64
2022/08/15 11:02:19;;;;;;;3.17;2.30;;;;;;;;;;5055125;28;20071;-61
2022/08/15 11:04:45;;;;;;;4.97;3.33;;;;;;;;;;5050428;28;20045;-51
2022/08/15 11:07:18;;;;;;;5.50;2.50;;;;;;;;;;5050986;28;20041;-58
2022/08/15 11:09:51;;;;;;;4.72;2.72;;;;;;;;;;5065384;28;20052;-62
2022/08/15 11:12:20;;;;;;;8.98;2.90;;;;;;;;;;5067628;28;20136;-55
2022/08/15 11:14:50;;;;;;;2.83;2.40;;;;;;;;;;5066771;28;20437;-61
2022/08/15 11:17:18;;;;;;;3.03;2.60;;;;;;;;;;5047325;28;20041;-51
2022/08/15 11:19:49;;;;;;;2.42;2.20;;;;;;;;;;5048925;28;20044;-59
2022/08/15 11:22:27;;;;;;;6.53;2.97;;;;;;;;;;5065266;28;20127;-56
2022/08/15 11:25:00;;;;;;;2.78;2.58;;;;;;;;;;5047037;28;20048;-62
2022/08/15 11:27:27;;;;;;;2.95;2.53;;;;;;;;;;5053687;28;20453;-59
2022/08/15 11:29:54;;;;;;;2.63;2.42;;;;;;;;;;5047772;28;20554;-61
2022/08/15 11:32:28;;;;;;;4.10;2.65;;;;;;;;;;5047217;28;20055;-58
2022/08/15 11:34:55;;;;;;;3.97;2.70;;;;;;;;;;5047526;28;20048;-60
2022/08/15 11:37:26;;;;;;;5.15;2.38;;;;;;;;;;5048093;28;20041;-59
2022/08/15 11:40:01;;;;;;;3.75;2.40;;;;;;;;;;5047841;28;20371;-56
2022/08/15 11:42:33;;;;;;;3.30;2.53;;;;;;;;;;5050466;28;20049;-60
2022/08/15 11:45:01;;;;;;;2.63;2.42;;;;;;;;;;5058822;28;20059;-55
2022/08/15 11:47:29;;;;;;;4.70;2.73;;;;;;;;;;5059855;28;20048;-60
2022/08/15 11:49:58;;;;;;;4.65;2.63;;;;;;;;;;5044137;28;20053;-58
2022/08/15 11:52:35;;;;;;;2.40;2.30;;;;;;;;;;5063793;28;20044;-58
2022/08/15 11:55:13;;;;;;;5.80;2.38;;;;;;;;;;5044203;28;20048;-58
2022/08/15 11:57:39;;;;;;;;;;;;;;;;;;5061420;28;20084;-59
2022/08/15 12:00:08;;;;;;;2.78;2.58;;;;;;;;;;5047232;28;19921;-55
2022/08/15 12:02:35;;;;;;;2.80;2.60;;;;;;;;;;5044917;28;20040;-64
2022/08/15 12:05:16;;;;;;;3.72;2.78;;;;;;;;;;5051800;28;20119;-57
2022/08/15 12:07:46;;;;;;;3.42;2.90;;;;;;;;;;5047755;28;20057;-55
2022/08/15 12:10:11;;;;;;;;;;;;;;;;;;5058908;28;20536;-58
2022/08/15 12:12:37;;;;;;;4.97;2.83;;;;;;;;;;5067143;28;20045;-55
2022/08/15 12:15:18;;;;;;;3.67;2.90;;;;;;;;;;5067128;28;20044;-55
2022/08/15 12:18:03;;;;;;;3.03;2.67;;;;;;;;;;5066734;28;20040;-55
2022/08/15 12:20:38;;;;;;;5.05;2.90;;;;;;;;;;5048883;28;20131;-55
2022/08/15 12:23:26;;;;;;;3.38;2.65;;;;;;;;;;5045397;28;20124;-54
2022/08/15 12:25:56;;;;;;;3.40;3.10;;;;;;;;;;5063044;28;20105;-57
2022/08/15 12:28:23;;;;;;;6.35;3.13;;;;;;;;;;5054071;28;20374;-64
2022/08/15 12:30:50;;;;;;;4.90;3.13;;;;;;;;;;5048538;28;20106;-56
2022/08/15 12:33:16;;;;;;;2.97;2.78;;;;;;;;;;5048214;28;20108;-51
2022/08/15 12:35:43;;;;;;;6.60;2.97;;;;;;;;;;5066247;28;20109;-56
2022/08/15 12:38:09;;;;;;;4.68;3.00;;;;;;;;;;5065605;28;20487;-60
2022/08/15 12:40:36;;;;;;;3.20;2.90;;;;;;;;;;5048428;28;20044;-56
2022/08/15 12:43:02;;;;;;;3.30;3.03;;;;;;;;;;5039459;28;20083;-59
2022/08/15 12:45:28;;;;;;;5.90;2.95;;;;;;;;;;5032003;28;20493;-53
2022/08/15 12:47:55;;;;;;;10.38;4.07;;;;;;;;;;5066147;28;20063;-59
2022/08/15 12:50:21;;;;;;;8.63;3.90;;;;;;;;;;5066832;28;20032;-55
2022/08/15 12:52:48;;;;;;;7.88;4.78;;;;;;;;;;5048627;28;20099;-58
2022/08/15 12:55:14;;;;;;;11.65;5.95;;;;;;;;;;5048306;28;20033;-60
2022/08/15 12:57:40;;;;;;;8.10;6.63;;;;;;;;;;5048180;28;20053;-55
2022/08/15 13:00:07;;;;;;;12.65;6.95;;;;;;;;;;5048212;28;20608;-60
2022/08/15 13:02:36;;;;;;;14.73;6.57;;;;;;;;;;5047099;28;20055;-54
2022/08/15 13:05:05;;;;;;;12.07;6.85;;;;;;;;;;5048118;28;20802;-61
2022/08/15 13:07:35;;;;;;;9.45;6.88;;;;;;;;;;5066030;28;20048;-58
2022/08/15 13:10:01;;;;;;;10.43;6.32;;;;;;;;;;5048236;28;20060;-54
2022/08/15 13:12:27;;;;;;;15.68;7.30;;;;;;;;;;5065927;28;20207;-61
2022/08/15 13:14:53;;;;;;;12.90;7.03;;;;;;;;;;5048337;28;20114;-55
2022/08/15 13:17:19;;;;;;;12.93;7.05;;;;;;;;;;5065094;28;20482;-65
2022/08/15 13:25:17;;;;;;;7.78;6.13;;;;;;;;;;5066739;28;20080;-65
2022/08/15 13:27:48;;;;;;;9.00;6.32;;;;;;;;;;5046386;28;20052;-57
2022/08/15 13:30:14;;;;;;;11.57;5.88;;;;;;;;;;5047956;28;20623;-60
2022/08/15 13:32:41;;;;;;;10.43;6.45;;;;;;;;;;5054650;28;20398;-55
2022/08/15 13:35:09;;;;;;;12.25;6.10;;;;;;;;;;5047667;28;20053;-61
2022/08/15 13:37:37;;;;;;;13.27;6.75;;;;;;;;;;5047260;28;20503;-56
2022/08/15 13:40:03;;;;;;;7.25;5.60;;;;;;;;;;5057019;28;20051;-61
2022/08/15 13:42:29;;;;;;;7.10;5.90;;;;;;;;;;5065838;28;20063;-55
2022/08/15 13:44:56;;;;;;;10.52;6.13;;;;;;;;;;5065858;28;20075;-58
2022/08/15 13:47:25;;;;;;;8.75;6.57;;;;;;;;;;5047407;28;20048;-61
2022/08/15 13:49:52;;;;;;;12.43;7.38;;;;;;;;;;5030946;28;20049;-59
2022/08/15 13:52:18;;;;;;;7.30;5.68;;;;;;;;;;5069177;28;20423;-58
2022/08/15 13:54:44;;;;;;;14.52;7.13;;;;;;;;;;5041253;28;20391;-63
2022/08/15 13:57:10;;;;;;;7.32;6.63;;;;;;;;;;5058229;28;20040;-55
2022/08/15 13:59:36;;;;;;;11.55;5.50;;;;;;;;;;5055500;28;20041;-58
2022/08/15 14:02:04;;;;;;;8.52;5.72;;;;;;;;;;5059571;28;20898;-63
2022/08/15 15:09:04;;;;;;;6.82;4.32;;;;;;;;;;5007865;23;20054;-65
2022/08/15 15:11:30;;;;;;;5.53;4.53;;;;;;;;;;4993549;28;20052;-60
2022/08/15 15:13:59;;;;;;;4.50;4.10;;;;;;;;;;5009510;28;20053;-66
2022/08/15 15:16:26;;;;;;;6.15;4.53;;;;;;;;;;5026941;28;20049;-62
2022/08/15 15:18:56;;;;;;;6.95;4.70;;;;;;;;;;5022381;28;20041;-64
2022/08/15 15:21:22;;;;;;;5.13;3.78;;;;;;;;;;5021521;28;20048;-66
2022/08/15 15:23:49;;;;;;;7.93;4.45;;;;;;;;;;5026542;28;20053;-67
2022/08/15 15:26:16;;;;;;;5.25;4.15;;;;;;;;;;5009298;28;20776;-59
2022/08/15 15:28:43;;;;;;;7.18;3.85;;;;;;;;;;5019094;28;20575;-63
2022/08/15 15:31:11;;;;;;;4.10;3.72;;;;;;;;;;5009942;28;20495;-55
2022/08/15 15:33:37;;;;;;;3.40;3.10;;;;;;;;;;5026167;28;20045;-64
2022/08/15 15:36:08;;;;;;;3.25;3.03;;;;;;;;;;5023562;28;20499;-63
2022/08/15 15:38:37;;;;;;;3.47;2.72;;;;;;;;;;5027437;28;20573;-63
2022/08/15 15:41:04;;;;;;;3.67;3.03;;;;;;;;;;5026091;28;20061;-60
2022/08/15 15:43:30;;;;;;;3.25;2.55;;;;;;;;;;5028828;28;20045;-57
2022/08/15 15:45:59;;;;;;;2.83;2.63;;;;;;;;;;4994842;28;20484;-54
2022/08/15 15:48:26;;;;;;;3.53;2.83;;;;;;;;;;5010123;28;20053;-67
2022/08/15 15:50:52;;;;;;;9.93;2.38;;;;;;;;;;5028353;28;20045;-62
2022/08/15 15:53:21;;;;;;;6.43;2.25;;;;;;;;;;5027007;28;20041;-58
2022/08/15 15:55:47;;;;;;;4.55;2.20;;;;;;;;;;4992795;28;20149;-52
2022/08/15 15:58:13;;;;;;;8.18;2.03;;;;;;;;;;5020668;28;20045;-57
2022/08/15 16:00:40;;;;;;;5.32;2.38;;;;;;;;;;5004409;28;20118;-65
2022/08/15 16:03:07;;;;;;;6.20;2.70;;;;;;;;;;5026185;28;20046;-57
2022/08/15 16:05:35;;;;;;;3.93;2.53;;;;;;;;;;5026316;28;20045;-54
2022/08/15 16:08:01;;;;;;;6.82;2.30;;;;;;;;;;5026112;28;20280;-55
2022/08/15 16:10:35;;;;;;;9.93;1.80;;;;;;;;;;5021664;28;20049;-60
2022/08/15 16:13:03;;;;;;;3.30;1.90;;;;;;;;;;4996787;28;20475;-56
2022/08/15 16:15:37;;;;;;;5.63;1.30;;;;;;;;;;5005671;28;20046;-59
2022/08/15 16:18:08;;;;;;;3.53;1.30;;;;;;;;;;5026191;28;20081;-54